createdAt,value
2018-09-17T00:00:51.712Z,17.38
2018-09-17T00:03:19.388Z,17.35
2018-09-17T00:05:47.062Z,17.33
2018-09-17T00:08:14.724Z,17.33
2018-09-17T00:10:42.434Z,17.34
2018-09-17T00:13:10.107Z,17.30
2018-09-17T00:15:37.758Z,17.24
2018-09-17T00:18:05.854Z,17.19
2018-09-17T00:20:33.643Z,17.15
2018-09-17T00:23:01.366Z,17.15
2018-09-17T00:25:29.266Z,17.11
2018-09-17T00:27:57.110Z,17.19
2018-09-17T00:30:24.811Z,17.06
2018-09-17T00:32:52.492Z,17.11
2018-09-17T00:35:20.195Z,17.12
2018-09-17T00:37:47.863Z,17.01
2018-09-17T00:40:15.851Z,17.03
2018-09-17T00:42:43.499Z,17.06
2018-09-17T00:45:11.187Z,17.06
2018-09-17T00:47:39.042Z,17.07
2018-09-17T00:50:06.850Z,17.05
2018-09-17T00:52:34.563Z,16.99
2018-09-17T00:55:02.329Z,16.92
2018-09-17T00:57:30.002Z,16.88
2018-09-17T00:59:57.681Z,16.86
2018-09-17T01:02:25.432Z,16.94
2018-09-17T01:04:53.173Z,16.87
2018-09-17T01:07:20.851Z,16.86
2018-09-17T01:09:48.603Z,16.83
2018-09-17T01:12:16.423Z,16.79
2018-09-17T01:14:44.135Z,16.75
2018-09-17T01:17:11.872Z,16.71
2018-09-17T01:19:39.576Z,16.70
2018-09-17T01:22:10.865Z,16.69
2018-09-17T01:24:39.243Z,16.71
2018-09-17T01:27:06.965Z,16.63
2018-09-17T01:29:34.659Z,16.59
2018-09-17T01:32:02.347Z,16.52
2018-09-17T01:34:30.045Z,16.50
2018-09-17T01:36:58.048Z,16.48
2018-09-17T01:39:25.759Z,16.47
2018-09-17T01:41:53.487Z,16.48
2018-09-17T01:44:21.182Z,16.48
2018-09-17T01:46:48.900Z,16.42
2018-09-17T01:49:16.611Z,16.44
2018-09-17T01:51:44.352Z,16.44
2018-09-17T01:54:12.060Z,16.39
2018-09-17T01:56:39.787Z,16.42
2018-09-17T01:59:07.514Z,16.42
2018-09-17T02:01:35.212Z,16.35
2018-09-17T02:04:02.947Z,16.37
2018-09-17T02:06:30.711Z,16.37
2018-09-17T02:08:59.191Z,16.34
2018-09-17T02:11:26.895Z,16.32
2018-09-17T02:13:54.661Z,16.26
2018-09-17T02:16:22.386Z,16.32
2018-09-17T02:18:50.104Z,16.30
2018-09-17T02:21:17.857Z,16.21
2018-09-17T02:23:48.719Z,16.18
2018-09-17T02:26:16.428Z,16.21
2018-09-17T02:28:44.166Z,16.22
2018-09-17T02:31:12.019Z,16.18
2018-09-17T02:33:39.756Z,16.18
2018-09-17T02:36:07.489Z,16.15
2018-09-17T02:38:35.209Z,16.07
2018-09-17T02:41:03.310Z,16.01
2018-09-17T02:43:31.039Z,16.00
2018-09-17T02:45:58.910Z,15.95
2018-09-17T02:48:26.675Z,15.91
2018-09-17T02:50:54.360Z,15.93
2018-09-17T02:53:22.256Z,15.83
2018-09-17T02:55:49.976Z,15.79
2018-09-17T02:58:17.667Z,15.80
2018-09-17T03:00:45.355Z,15.86
2018-09-17T03:03:13.152Z,15.82
2018-09-17T03:05:40.878Z,15.78
2018-09-17T03:08:08.559Z,15.70
2018-09-17T03:10:36.311Z,15.68
2018-09-17T03:13:04.840Z,15.70
2018-09-17T03:15:51.616Z,15.68
2018-09-17T03:18:37.627Z,15.71
2018-09-17T03:21:06.511Z,15.65
2018-09-17T03:23:35.476Z,15.57
2018-09-17T03:26:03.420Z,15.56
2018-09-17T03:28:31.331Z,15.57
2018-09-17T03:30:59.020Z,15.49
2018-09-17T03:33:27.053Z,15.51
2018-09-17T03:35:54.787Z,15.45
2018-09-17T03:38:42.678Z,15.48
2018-09-17T03:41:11.230Z,15.48
2018-09-17T03:43:40.223Z,15.43
2018-09-17T03:46:07.955Z,15.36
2018-09-17T03:48:36.485Z,15.38
2018-09-17T03:51:05.300Z,15.34
2018-09-17T03:53:33.335Z,15.35
2018-09-17T03:56:01.375Z,15.37
2018-09-17T03:58:29.428Z,15.38
2018-09-17T04:00:57.636Z,15.31
2018-09-17T04:03:25.412Z,15.36
2018-09-17T04:05:53.121Z,15.35
2018-09-17T04:08:20.844Z,15.38
2018-09-17T04:10:48.723Z,15.38
2018-09-17T04:13:16.463Z,15.33
2018-09-17T04:15:44.183Z,15.30
2018-09-17T04:18:12.640Z,15.29
2018-09-17T04:20:40.323Z,15.29
2018-09-17T04:23:08.226Z,15.37
2018-09-17T04:25:36.219Z,15.38
2018-09-17T04:28:04.055Z,15.33
2018-09-17T04:30:31.772Z,15.31
2018-09-17T04:33:00.331Z,15.19
2018-09-17T04:35:28.047Z,15.17
2018-09-17T04:37:55.728Z,15.24
2018-09-17T04:40:23.436Z,15.19
2018-09-17T04:42:51.168Z,15.19
2018-09-17T04:45:18.879Z,15.14
2018-09-17T04:47:50.167Z,15.09
2018-09-17T04:50:18.024Z,15.11
2018-09-17T04:52:45.763Z,15.09
2018-09-17T04:55:13.483Z,15.09
2018-09-17T04:57:41.184Z,15.05
2018-09-17T05:00:08.887Z,15.03
2018-09-17T05:02:36.603Z,15.01
2018-09-17T05:05:04.987Z,14.99
2018-09-17T05:07:32.808Z,15.02
2018-09-17T05:10:00.725Z,15.03
2018-09-17T05:12:28.414Z,15.10
2018-09-17T05:14:56.151Z,15.01
2018-09-17T05:17:23.864Z,14.99
2018-09-17T05:19:51.599Z,15.00
2018-09-17T05:22:19.291Z,14.95
2018-09-17T05:24:46.987Z,14.93
2018-09-17T05:27:14.660Z,15.05
2018-09-17T05:29:42.351Z,15.01
2018-09-17T05:32:10.049Z,14.99
2018-09-17T05:34:37.761Z,15.06
2018-09-17T05:37:05.719Z,15.01
2018-09-17T05:39:33.441Z,15.00
2018-09-17T05:42:01.219Z,14.94
2018-09-17T05:44:29.320Z,14.91
2018-09-17T05:46:57.067Z,14.89
2018-09-17T05:49:24.783Z,14.98
2018-09-17T05:51:52.583Z,15.00
2018-09-17T05:54:20.349Z,15.03
2018-09-17T05:56:48.059Z,15.02
2018-09-17T05:59:15.875Z,15.06
2018-09-17T06:01:43.850Z,15.12
2018-09-17T06:04:11.559Z,15.14
2018-09-17T06:06:39.267Z,15.21
2018-09-17T06:09:09.619Z,15.24
2018-09-17T06:11:37.357Z,15.32
2018-09-17T06:14:05.333Z,15.31
2018-09-17T06:16:33.035Z,15.34
2018-09-17T06:19:00.922Z,15.38
2018-09-17T06:21:28.671Z,15.39
2018-09-17T06:23:56.363Z,15.50
2018-09-17T06:26:27.775Z,15.51
2018-09-17T06:28:55.540Z,15.53
2018-09-17T06:31:23.152Z,15.54
2018-09-17T06:33:50.836Z,15.62
2018-09-17T06:36:18.547Z,15.68
2018-09-17T06:38:46.231Z,15.76
2018-09-17T06:41:13.923Z,15.83
2018-09-17T06:43:41.667Z,15.89
2018-09-17T06:46:09.374Z,15.93
2018-09-17T06:48:37.099Z,15.99
2018-09-17T06:51:05.762Z,16.13
2018-09-17T06:53:33.714Z,16.16
2018-09-17T06:56:01.455Z,16.17
2018-09-17T06:58:29.503Z,16.25
2018-09-17T07:00:57.186Z,16.30
2018-09-17T07:03:24.907Z,16.39
2018-09-17T07:05:52.667Z,16.45
2018-09-17T07:08:20.414Z,16.51
2018-09-17T07:10:48.102Z,16.63
2018-09-17T07:13:15.784Z,16.69
2018-09-17T07:15:43.575Z,16.90
2018-09-17T07:18:11.412Z,16.99
2018-09-17T07:20:39.164Z,17.10
2018-09-17T07:23:07.031Z,17.26
2018-09-17T07:25:34.710Z,17.35
2018-09-17T07:28:02.451Z,17.56
2018-09-17T07:30:30.462Z,17.73
2018-09-17T07:32:58.192Z,17.86
2018-09-17T07:35:25.888Z,17.95
2018-09-17T07:37:53.567Z,18.07
2018-09-17T07:40:21.735Z,18.23
2018-09-17T07:42:49.744Z,18.32
2018-09-17T07:45:17.442Z,18.47
2018-09-17T07:47:48.600Z,18.57
2018-09-17T07:50:16.282Z,18.82
2018-09-17T07:52:43.994Z,19.01
2018-09-17T07:55:11.768Z,19.22
2018-09-17T07:57:39.579Z,19.45
2018-09-17T08:00:07.320Z,19.61
2018-09-17T08:02:35.008Z,19.81
2018-09-17T08:05:02.847Z,20.02
2018-09-17T08:07:30.535Z,20.15
2018-09-17T08:09:58.287Z,20.29
2018-09-17T08:12:25.972Z,20.47
2018-09-17T08:14:53.675Z,20.57
2018-09-17T08:17:21.363Z,20.99
2018-09-17T08:19:49.088Z,21.05
2018-09-17T08:22:16.759Z,21.17
2018-09-17T08:24:44.594Z,21.41
2018-09-17T08:27:12.331Z,21.82
2018-09-17T08:29:40.080Z,22.34
2018-09-17T08:32:07.923Z,22.48
2018-09-17T08:34:36.051Z,22.82
2018-09-17T08:37:03.748Z,23.03
2018-09-17T08:39:31.493Z,22.95
2018-09-17T08:41:59.279Z,23.40
2018-09-17T08:44:27.015Z,23.76
2018-09-17T08:46:54.747Z,24.32
2018-09-17T08:49:22.481Z,24.60
2018-09-17T08:51:50.619Z,24.50
2018-09-17T08:54:18.406Z,24.37
2018-09-17T08:56:54.778Z,24.11
2018-09-17T08:59:28.354Z,24.80
2018-09-17T09:01:59.891Z,25.04
2018-09-17T09:04:33.415Z,25.46
2018-09-17T09:07:06.211Z,25.50
2018-09-17T09:09:34.019Z,25.69
2018-09-17T09:12:07.595Z,25.82
2018-09-17T09:14:39.211Z,25.70
2018-09-17T09:17:12.972Z,25.59
2018-09-17T09:19:40.736Z,25.98
2018-09-17T09:22:08.787Z,26.29
2018-09-17T09:24:36.510Z,26.73
2018-09-17T09:27:04.270Z,26.82
2018-09-17T09:29:32.022Z,27.04
2018-09-17T09:31:59.755Z,26.21
2018-09-17T09:34:27.563Z,26.71
2018-09-17T09:36:55.243Z,26.34
2018-09-17T09:39:22.935Z,26.23
2018-09-17T09:41:50.690Z,26.38
2018-09-17T09:44:18.475Z,27.28
2018-09-17T09:46:46.437Z,27.72
2018-09-17T09:49:14.154Z,28.24
2018-09-17T09:51:41.837Z,27.94
2018-09-17T09:54:10.562Z,28.31
2018-09-17T09:56:38.270Z,28.25
2018-09-17T09:59:06.006Z,28.30
2018-09-17T10:01:39.487Z,28.54
2018-09-17T10:04:13.080Z,27.97
2018-09-17T10:06:40.773Z,28.82
2018-09-17T10:09:14.404Z,29.62
2018-09-17T10:11:47.860Z,29.42
2018-09-17T10:14:21.287Z,28.35
2018-09-17T10:16:54.901Z,28.29
2018-09-17T10:19:24.360Z,28.84
2018-09-17T10:24:26.955Z,30.24
2018-09-17T10:26:58.014Z,29.82
2018-09-17T10:29:25.695Z,30.35
2018-09-17T10:31:53.390Z,30.52
2018-09-17T10:34:21.119Z,31.00
2018-09-17T10:36:48.798Z,31.23
2018-09-17T10:39:17.518Z,31.69
2018-09-17T10:41:45.191Z,30.76
2018-09-17T10:44:13.231Z,30.69
2018-09-17T10:46:40.929Z,31.23
2018-09-17T10:49:08.823Z,31.32
2018-09-17T10:51:36.524Z,31.67
2018-09-17T10:54:04.305Z,32.57
2018-09-17T10:56:32.011Z,32.91
2018-09-17T10:58:59.732Z,33.28
2018-09-17T11:01:27.427Z,33.11
2018-09-17T11:03:55.126Z,32.94
2018-09-17T11:06:22.934Z,33.35
2018-09-17T11:08:50.667Z,33.78
2018-09-17T11:11:18.414Z,33.03
2018-09-17T11:13:46.105Z,31.34
2018-09-17T11:16:13.790Z,30.93
2018-09-17T11:18:41.596Z,32.16
2018-09-17T11:21:09.288Z,32.63
2018-09-17T11:23:36.951Z,32.93
2018-09-17T11:26:04.752Z,33.46
2018-09-17T11:28:32.439Z,33.57
2018-09-17T11:31:00.149Z,34.26
2018-09-17T11:33:27.865Z,33.87
2018-09-17T11:35:56.171Z,33.06
2018-09-17T11:38:24.249Z,32.66
2018-09-17T11:40:51.971Z,32.24
2018-09-17T11:43:20.205Z,31.58
2018-09-17T11:45:48.256Z,32.62
2018-09-17T11:48:16.082Z,32.95
2018-09-17T11:50:47.539Z,32.78
2018-09-17T11:53:15.289Z,32.69
2018-09-17T11:55:43.115Z,32.51
2018-09-17T11:58:10.839Z,33.50
2018-09-17T12:00:44.354Z,34.17
2018-09-17T12:03:17.872Z,34.49
2018-09-17T12:05:51.362Z,34.50
2018-09-17T12:08:19.447Z,34.89
2018-09-17T12:10:47.148Z,35.26
2018-09-17T12:13:14.875Z,34.89
2018-09-17T12:15:43.422Z,34.36
2018-09-17T12:18:12.118Z,35.02
2018-09-17T12:20:40.182Z,35.74
2018-09-17T12:23:08.535Z,34.47
2018-09-17T12:25:36.227Z,34.42
2018-09-17T12:28:04.147Z,33.86
2018-09-17T12:30:31.863Z,32.88
2018-09-17T12:33:00.230Z,33.50
2018-09-17T12:35:27.945Z,34.54
2018-09-17T12:37:55.675Z,34.35
2018-09-17T12:40:24.125Z,33.82
2018-09-17T12:42:51.981Z,33.78
2018-09-17T12:45:20.156Z,33.98
2018-09-17T12:47:47.975Z,33.68
2018-09-17T12:50:15.744Z,33.86
2018-09-17T12:52:43.436Z,34.14
2018-09-17T12:55:11.417Z,34.15
2018-09-17T12:57:39.240Z,34.55
2018-09-17T13:00:07.694Z,35.09
2018-09-17T13:02:35.455Z,34.90
2018-09-17T13:05:03.195Z,33.99
2018-09-17T13:07:30.986Z,34.49
2018-09-17T13:09:58.695Z,34.76
2018-09-17T13:12:26.587Z,32.64
2018-09-17T13:14:54.941Z,33.60
2018-09-17T13:17:22.575Z,34.32
2018-09-17T13:19:50.247Z,34.34
2018-09-17T13:22:17.943Z,34.46
2018-09-17T13:24:45.670Z,35.08
2018-09-17T13:27:13.903Z,35.52
2018-09-17T13:29:41.602Z,34.51
2018-09-17T13:32:09.432Z,34.33
2018-09-17T13:34:37.588Z,34.73
2018-09-17T13:37:05.675Z,34.84
2018-09-17T13:39:33.424Z,34.62
2018-09-17T13:42:01.202Z,34.70
2018-09-17T13:44:29.062Z,34.51
2018-09-17T13:46:56.703Z,34.61
2018-09-17T13:49:24.420Z,34.81
2018-09-17T13:51:52.191Z,34.86
2018-09-17T13:54:19.954Z,34.92
2018-09-17T13:56:47.660Z,34.24
2018-09-17T13:59:15.447Z,34.06
2018-09-17T14:01:43.151Z,33.76
2018-09-17T14:04:11.208Z,33.17
2018-09-17T14:06:38.951Z,33.64
2018-09-17T14:09:09.211Z,33.81
2018-09-17T14:11:37.233Z,32.66
2018-09-17T14:14:05.344Z,32.97
2018-09-17T14:16:33.454Z,32.91
2018-09-17T14:19:01.241Z,33.13
2018-09-17T14:21:29.088Z,32.67
2018-09-17T14:23:56.896Z,32.44
2018-09-17T14:26:25.498Z,32.52
2018-09-17T14:28:53.079Z,32.39
2018-09-17T14:31:25.391Z,31.81
2018-09-17T14:33:53.265Z,31.97
2018-09-17T14:36:21.022Z,31.77
2018-09-17T14:38:48.799Z,31.44
2018-09-17T14:41:16.475Z,31.60
2018-09-17T14:43:44.344Z,31.77
2018-09-17T14:46:12.114Z,31.83
2018-09-17T14:48:39.759Z,31.66
2018-09-17T14:51:07.548Z,31.84
2018-09-17T14:53:35.322Z,31.41
2018-09-17T14:56:03.104Z,31.54
2018-09-17T14:58:30.809Z,31.54
2018-09-17T15:01:06.247Z,30.88
2018-09-17T15:03:34.946Z,31.05
2018-09-17T15:06:02.666Z,31.13
2018-09-17T15:08:30.450Z,30.98
2018-09-17T15:10:58.172Z,30.48
2018-09-17T15:13:25.951Z,30.27
2018-09-17T15:15:54.629Z,30.51
2018-09-17T15:18:22.840Z,30.51
2018-09-17T15:20:50.620Z,30.74
2018-09-17T15:23:18.540Z,30.64
2018-09-17T15:25:46.304Z,30.54
2018-09-17T15:28:14.180Z,30.30
2018-09-17T15:30:42.015Z,30.00
2018-09-17T15:33:09.757Z,30.09
2018-09-17T15:35:37.535Z,30.05
2018-09-17T15:38:05.920Z,29.93
2018-09-17T15:40:33.692Z,29.96
2018-09-17T15:43:02.195Z,29.86
2018-09-17T15:45:30.078Z,29.76
2018-09-17T15:47:57.920Z,29.69
2018-09-17T15:50:25.668Z,29.70
2018-09-17T15:52:53.403Z,29.67
2018-09-17T15:55:21.165Z,29.51
2018-09-17T15:57:49.039Z,29.52
2018-09-17T16:00:16.777Z,29.42
2018-09-17T16:02:44.551Z,29.36
2018-09-17T16:05:13.155Z,29.22
2018-09-17T16:07:40.879Z,29.10
2018-09-17T16:10:08.588Z,29.08
2018-09-17T16:12:36.541Z,28.89
2018-09-17T16:15:04.382Z,28.84
2018-09-17T16:17:32.079Z,28.64
2018-09-17T16:20:00.270Z,28.71
2018-09-17T16:22:27.995Z,28.75
2018-09-17T16:24:55.711Z,28.66
2018-09-17T16:27:23.503Z,28.67
2018-09-17T16:29:51.278Z,28.68
2018-09-17T16:32:19.043Z,28.69
2018-09-17T16:34:46.976Z,28.62
2018-09-17T16:37:14.735Z,28.56
2018-09-17T16:39:42.580Z,28.48
2018-09-17T16:42:10.388Z,28.39
2018-09-17T16:44:38.188Z,28.25
2018-09-17T16:47:05.859Z,28.12
2018-09-17T16:49:33.584Z,27.98
2018-09-17T16:52:01.393Z,27.87
2018-09-17T16:54:29.520Z,27.74
2018-09-17T16:56:57.239Z,27.62
2018-09-17T16:59:25.002Z,27.45
2018-09-17T17:01:52.732Z,27.28
2018-09-17T17:04:20.532Z,27.12
2018-09-17T17:06:48.275Z,27.00
2018-09-17T17:09:16.044Z,26.85
2018-09-17T17:11:43.854Z,26.70
2018-09-17T17:14:11.543Z,26.51
2018-09-17T17:16:39.250Z,26.37
2018-09-17T17:19:07.108Z,26.29
2018-09-17T17:21:34.865Z,26.23
2018-09-17T17:26:37.394Z,26.03
2018-09-17T17:29:05.102Z,26.01
2018-09-17T17:31:32.863Z,25.91
2018-09-17T17:34:00.941Z,25.80
2018-09-17T17:36:28.612Z,25.69
2018-09-17T17:38:56.431Z,25.56
2018-09-17T17:41:24.142Z,25.37
2018-09-17T17:43:51.840Z,25.22
2018-09-17T17:46:19.768Z,25.10
2018-09-17T17:48:47.517Z,24.99
2018-09-17T17:51:15.306Z,24.94
2018-09-17T17:53:43.110Z,24.83
2018-09-17T17:56:11.155Z,24.69
2018-09-17T17:58:38.934Z,24.56
2018-09-17T18:01:06.972Z,24.47
2018-09-17T18:03:34.632Z,24.34
2018-09-17T18:06:02.358Z,24.29
2018-09-17T18:08:30.082Z,24.24
2018-09-17T18:10:57.883Z,24.16
2018-09-17T18:13:25.637Z,24.04
2018-09-17T18:15:54.021Z,23.94
2018-09-17T18:18:21.955Z,23.86
2018-09-17T18:20:49.874Z,23.76
2018-09-17T18:23:17.961Z,23.64
2018-09-17T18:25:45.786Z,23.63
2018-09-17T18:28:13.607Z,23.59
2018-09-17T18:30:41.734Z,23.53
2018-09-17T18:33:09.676Z,23.45
2018-09-17T18:35:37.572Z,23.41
2018-09-17T18:38:05.411Z,23.37
2018-09-17T18:40:33.128Z,23.31
2018-09-17T18:43:01.039Z,23.29
2018-09-17T18:45:28.736Z,23.26
2018-09-17T18:47:56.662Z,23.22
2018-09-17T18:50:24.577Z,23.21
2018-09-17T18:52:52.426Z,23.14
2018-09-17T18:55:20.283Z,23.08
2018-09-17T18:57:48.062Z,23.03
2018-09-17T19:00:16.224Z,22.99
2018-09-17T19:02:43.950Z,22.94
2018-09-17T19:05:11.706Z,22.86
2018-09-17T19:07:39.523Z,22.81
2018-09-17T19:10:07.525Z,22.74
2018-09-17T19:12:35.364Z,22.69
2018-09-17T19:15:09.016Z,22.61
2018-09-17T19:17:40.839Z,22.56
2018-09-17T19:20:10.509Z,22.51
2018-09-17T19:22:44.119Z,22.46
2018-09-17T19:25:13.421Z,22.42
2018-09-17T19:27:47.294Z,22.37
2018-09-17T19:30:15.560Z,22.32
2018-09-17T19:32:43.569Z,22.32
2018-09-17T19:35:11.419Z,22.24
2018-09-17T19:37:44.970Z,22.18
2018-09-17T19:40:16.189Z,22.15
2018-09-17T19:42:45.159Z,22.10
2018-09-17T19:45:19.008Z,22.04
2018-09-17T19:47:47.113Z,21.97
2018-09-17T19:50:20.906Z,21.92
2018-09-17T19:52:48.611Z,21.90
2018-09-17T19:55:16.399Z,21.82
2018-09-17T19:57:50.044Z,21.89
2018-09-17T20:00:17.856Z,21.88
2018-09-17T20:02:45.584Z,21.79
2018-09-17T20:05:19.140Z,21.73
2018-09-17T20:07:47.322Z,21.72
2018-09-17T20:10:15.122Z,21.63
2018-09-17T20:12:42.894Z,21.67
2018-09-17T20:15:11.116Z,21.65
2018-09-17T20:17:38.901Z,21.59
2018-09-17T20:20:06.780Z,21.59
2018-09-17T20:22:34.620Z,21.54
2018-09-17T20:25:02.496Z,21.56
2018-09-17T20:27:30.254Z,21.47
2018-09-17T20:29:58.023Z,21.49
2018-09-17T20:32:26.148Z,21.39
2018-09-17T20:34:53.853Z,21.32
2018-09-17T20:37:21.676Z,21.26
2018-09-17T20:39:49.331Z,21.23
2018-09-17T20:42:17.118Z,21.14
2018-09-17T20:44:44.825Z,21.06
2018-09-17T20:47:12.674Z,21.02
2018-09-17T20:49:40.494Z,20.99
2018-09-17T20:52:08.222Z,21.01
2018-09-17T20:54:35.931Z,20.95
2018-09-17T20:57:03.648Z,20.96
2018-09-17T21:00:10.993Z,20.93
2018-09-17T21:02:42.634Z,20.86
2018-09-17T21:05:10.367Z,20.90
2018-09-17T21:07:38.100Z,20.84
2018-09-17T21:10:06.059Z,20.81
2018-09-17T21:12:33.857Z,20.75
2018-09-17T21:15:01.727Z,20.75
2018-09-17T21:17:29.499Z,20.70
2018-09-17T21:19:57.238Z,20.71
2018-09-17T21:22:24.967Z,20.68
2018-09-17T21:24:52.762Z,20.62
2018-09-17T21:27:20.485Z,20.62
2018-09-17T21:29:48.177Z,20.58
2018-09-17T21:32:15.892Z,20.51
2018-09-17T21:34:43.647Z,20.54
2018-09-17T21:37:11.413Z,20.49
2018-09-17T21:39:39.128Z,20.43
2018-09-17T21:42:06.839Z,20.39
2018-09-17T21:44:34.556Z,20.32
2018-09-17T21:47:02.287Z,20.28
2018-09-17T21:49:30.004Z,20.22
2018-09-17T21:51:57.773Z,20.16
2018-09-17T21:54:25.509Z,20.07
2018-09-17T21:56:53.221Z,20.02
2018-09-17T21:59:20.921Z,19.97
2018-09-17T22:01:48.632Z,19.90
2018-09-17T22:04:16.405Z,19.85
2018-09-17T22:06:44.060Z,19.82
2018-09-17T22:09:11.723Z,19.74
2018-09-17T22:11:39.427Z,19.66
2018-09-17T22:14:07.127Z,19.61
2018-09-17T22:16:34.886Z,19.56
2018-09-17T22:19:02.679Z,19.54
2018-09-17T22:21:30.380Z,19.53
2018-09-17T22:24:01.731Z,19.51
2018-09-17T22:26:29.439Z,19.45
2018-09-17T22:28:57.235Z,19.43
2018-09-17T22:31:24.936Z,19.42
2018-09-17T22:33:52.626Z,19.38
2018-09-17T22:36:20.328Z,19.37
2018-09-17T22:38:48.221Z,19.35
2018-09-17T22:41:16.672Z,19.31
2018-09-17T22:43:44.418Z,19.26
2018-09-17T22:46:12.119Z,19.25
2018-09-17T22:48:39.925Z,19.26
2018-09-17T22:51:08.455Z,19.24
2018-09-17T22:53:36.266Z,19.29
2018-09-17T22:56:03.966Z,19.30
2018-09-17T22:58:31.683Z,19.28
2018-09-17T23:00:59.358Z,19.29
2018-09-17T23:03:27.084Z,19.26
2018-09-17T23:05:54.860Z,19.23
2018-09-17T23:08:22.553Z,19.20
2018-09-17T23:10:50.250Z,19.23
2018-09-17T23:13:18.273Z,19.21
2018-09-17T23:15:46.021Z,19.21
2018-09-17T23:18:13.773Z,19.19
2018-09-17T23:20:41.507Z,19.18
2018-09-17T23:23:09.197Z,19.16
2018-09-17T23:25:36.963Z,19.18
2018-09-17T23:28:04.962Z,19.17
2018-09-17T23:30:43.790Z,19.19
2018-09-17T23:33:11.517Z,19.06
2018-09-17T23:35:39.279Z,19.04
2018-09-17T23:38:06.978Z,19.01
2018-09-17T23:40:34.726Z,19.01
2018-09-17T23:43:02.766Z,19.03
2018-09-17T23:45:36.159Z,19.03
2018-09-17T23:48:04.231Z,18.93
2018-09-17T23:50:31.945Z,18.91
2018-09-17T23:52:59.622Z,18.89
2018-09-17T23:55:27.312Z,18.92
2018-09-17T23:57:54.988Z,18.82
